Time;durP1;ratioP1;P1;durP2;ratioP2;P2;SDS_P1;SDS_P2;PMS_P1;PMS_P2;Temp;Humidity;BMP_temperature;BMP_pressure;BME280_temperature;BME280_humidity;BME280_pressure;Samples;Min_cycle;Max_cycle;Signal;HPM_P1;HPM_P2
2024/04/13 00:01:09;;;;;;;9.30;4.73;;;;;;;17.10;46.86;98667.72;5432278;26;20261;-71
2024/04/13 00:03:34;;;;;;;8.07;5.13;;;;;;;17.11;46.71;98674.69;5447130;26;20253;-71
2024/04/13 00:06:00;;;;;;;10.63;5.23;;;;;;;17.05;46.75;98673.50;5446428;26;20637;-73
2024/04/13 00:08:25;;;;;;;9.53;5.17;;;;;;;16.96;47.06;98680.56;5439941;26;20579;-71
2024/04/13 00:10:51;;;;;;;7.70;5.03;;;;;;;16.97;47.19;98673.44;5439073;26;20266;-72
2024/04/13 00:13:17;;;;;;;8.50;5.43;;;;;;;16.92;47.25;98679.19;5443456;26;20232;-71
2024/04/13 00:15:42;;;;;;;11.37;5.50;;;;;;;16.92;47.42;98673.06;5432969;26;20239;-71
2024/04/13 00:18:08;;;;;;;8.20;5.43;;;;;;;16.86;47.37;98669.22;5431139;26;20228;-70
2024/04/13 00:20:33;;;;;;;8.20;4.73;;;;;;;16.82;47.04;98673.16;5446638;26;20782;-75
2024/04/13 00:22:59;;;;;;;8.23;5.40;;;;;;;16.78;47.42;98671.81;5441587;26;20291;-70
2024/04/13 00:25:29;;;;;;;5.60;4.73;;;;;;;16.77;47.65;98665.69;5444994;26;20239;-71
2024/04/13 00:27:54;;;;;;;8.17;5.33;;;;;;;16.74;47.47;98656.25;5438425;26;20511;-71
2024/04/13 00:30:20;;;;;;;11.67;5.63;;;;;;;16.77;47.41;98659.56;5445672;26;20461;-70
2024/04/13 00:32:45;;;;;;;8.50;5.47;;;;;;;16.71;47.63;98661.00;5446574;26;20295;-71
2024/04/13 00:35:10;;;;;;;8.40;5.30;;;;;;;16.64;47.66;98660.81;5444846;26;20327;-71
2024/04/13 00:37:36;;;;;;;13.83;6.10;;;;;;;16.57;47.80;98649.19;5426739;26;20325;-71
2024/04/13 00:40:03;;;;;;;10.27;5.50;;;;;;;16.55;47.94;98645.88;5444062;26;20693;-69
2024/04/13 00:42:28;;;;;;;8.60;6.00;;;;;;;16.58;48.19;98645.56;5440213;26;20282;-71
2024/04/13 00:45:03;;;;;;;8.70;5.00;;;;;;;16.57;48.08;98646.53;5434636;26;20465;-72
2024/04/13 00:47:29;;;;;;;8.43;4.47;;;;;;;16.52;48.06;98643.53;5443124;26;20678;-71
2024/04/13 00:49:58;;;;;;;10.03;5.20;;;;;;;16.46;48.30;98644.16;5413915;26;20457;-70
2024/04/13 00:52:24;;;;;;;7.93;4.80;;;;;;;16.46;48.17;98644.97;5445396;26;20457;-69
2024/04/13 00:54:52;;;;;;;7.57;4.67;;;;;;;16.48;48.21;98644.84;5430574;26;20895;-71
2024/04/13 00:57:18;;;;;;;7.97;4.90;;;;;;;16.41;48.03;98634.84;5442096;26;20321;-69
2024/04/13 00:59:44;;;;;;;8.17;5.03;;;;;;;16.39;47.88;98636.81;5433736;26;20465;-70
2024/04/13 01:02:13;;;;;;;8.43;4.43;;;;;;;16.26;48.55;98628.47;5430933;26;20798;-69
2024/04/13 01:04:38;;;;;;;7.40;4.67;;;;;;;16.33;48.41;98628.69;5436427;26;20630;-72
2024/04/13 01:07:04;;;;;;;8.63;4.40;;;;;;;16.28;48.55;98621.19;5445580;26;20477;-74
2024/04/13 01:09:29;;;;;;;6.53;4.47;;;;;;;16.31;48.51;98628.84;5440072;26;20267;-70
2024/04/13 01:11:55;;;;;;;6.83;4.37;;;;;;;16.35;48.49;98630.19;5428853;26;20270;-71
2024/04/13 01:14:20;;;;;;;7.77;4.63;;;;;;;16.31;48.12;98631.50;5445682;26;20363;-70
2024/04/13 01:16:46;;;;;;;5.43;4.57;;;;;;;16.33;48.73;98634.81;5436503;26;20240;-71
2024/04/13 01:19:11;;;;;;;9.27;4.30;;;;;;;16.25;48.56;98629.47;5439438;26;20323;-69
2024/04/13 01:21:37;;;;;;;7.07;4.53;;;;;;;16.23;48.71;98629.59;5432079;26;20281;-69
2024/04/13 01:24:05;;;;;;;9.00;4.50;;;;;;;16.24;48.00;98636.56;5441009;26;20724;-71
2024/04/13 01:26:37;;;;;;;8.00;4.57;;;;;;;16.25;48.29;98640.06;5441045;26;20469;-69
2024/04/13 01:29:04;;;;;;;6.93;4.70;;;;;;;16.22;48.17;98643.81;5445789;26;20519;-69
2024/04/13 01:31:32;;;;;;;8.37;4.57;;;;;;;16.18;48.55;98641.63;5442332;26;20454;-70
2024/04/13 01:33:58;;;;;;;13.43;5.27;;;;;;;16.12;48.18;98643.94;5444170;26;20461;-69
2024/04/13 01:36:26;;;;;;;6.73;4.67;;;;;;;16.11;48.62;98644.91;5426940;26;20530;-69
2024/04/13 01:38:51;;;;;;;5.30;4.00;;;;;;;16.08;48.66;98647.00;5446009;26;20243;-70
2024/04/13 01:41:17;;;;;;;8.27;4.27;;;;;;;16.07;48.91;98643.53;5434682;26;20465;-69
2024/04/13 01:43:43;;;;;;;6.03;4.60;;;;;;;16.10;48.85;98637.09;5430847;26;20570;-71
2024/04/13 01:46:08;;;;;;;7.97;4.43;;;;;;;16.07;49.15;98647.97;5432334;26;20247;-71
2024/04/13 01:48:34;;;;;;;8.03;3.80;;;;;;;15.96;49.01;98641.94;5444300;26;20262;-69
2024/04/13 01:51:00;;;;;;;11.50;4.20;;;;;;;15.91;49.10;98643.38;5445294;26;20468;-71
2024/04/13 01:53:26;;;;;;;6.03;4.27;;;;;;;15.91;49.13;98638.09;5443207;26;20335;-70
2024/04/13 01:55:51;;;;;;;8.07;4.20;;;;;;;15.90;49.15;98636.44;5435401;26;20941;-71
2024/04/13 01:58:17;;;;;;;5.87;4.00;;;;;;;15.95;48.96;98647.41;5438694;26;20795;-70
2024/04/13 02:00:43;;;;;;;8.33;4.37;;;;;;;15.97;49.17;98634.88;5444989;26;20266;-71
2024/04/13 02:03:08;;;;;;;10.77;4.03;;;;;;;15.99;49.10;98629.41;5444896;26;20598;-71
2024/04/13 02:05:35;;;;;;;6.23;4.33;;;;;;;15.96;49.15;98627.91;5443620;26;20251;-69
2024/04/13 02:08:01;;;;;;;9.80;4.53;;;;;;;15.91;49.14;98633.66;5420885;26;20269;-68
2024/04/13 02:10:26;;;;;;;7.40;4.70;;;;;;;15.86;49.28;98641.19;5432933;26;21095;-70
2024/04/13 02:12:51;;;;;;;6.90;4.67;;;;;;;15.85;49.52;98634.25;5446044;26;20587;-69
2024/04/13 02:15:17;;;;;;;13.70;4.57;;;;;;;15.87;49.41;98639.41;5447943;26;20239;-70
2024/04/13 02:17:43;;;;;;;8.07;4.70;;;;;;;15.86;49.50;98643.84;5447032;26;20295;-72
2024/04/13 02:20:14;;;;;;;6.83;4.70;;;;;;;15.91;49.34;98643.38;5422652;26;20466;-71
2024/04/13 02:22:40;;;;;;;6.00;4.20;;;;;;;15.88;49.37;98647.16;5447094;26;20232;-70
2024/04/13 02:25:08;;;;;;;6.53;4.30;;;;;;;15.91;49.39;98648.69;5448529;26;20848;-70
2024/04/13 02:27:34;;;;;;;7.77;3.90;;;;;;;15.92;49.56;98650.34;5446240;26;20289;-70
2024/04/13 02:29:59;;;;;;;7.00;4.30;;;;;;;15.84;49.29;98652.88;5434094;26;20464;-70
2024/04/13 02:32:25;;;;;;;5.53;4.53;;;;;;;15.80;50.01;98653.19;5429134;26;20239;-71
2024/04/13 02:34:50;;;;;;;9.50;4.40;;;;;;;15.77;49.88;98658.75;5423627;26;20348;-72
2024/04/13 02:37:16;;;;;;;8.90;4.50;;;;;;;15.80;50.08;98650.53;5446683;26;20247;-67
2024/04/13 02:39:41;;;;;;;9.60;4.93;;;;;;;15.78;49.97;98644.56;5441503;26;20292;-70
2024/04/13 02:42:07;;;;;;;12.83;5.03;;;;;;;15.79;50.06;98646.22;5440995;26;21013;-73
2024/04/13 02:44:32;;;;;;;8.33;3.90;;;;;;;15.83;50.02;98641.47;5444906;26;20239;-69
2024/04/13 02:46:58;;;;;;;7.17;4.70;;;;;;;15.86;49.91;98640.38;5447488;26;20247;-72
2024/04/13 02:49:23;;;;;;;10.23;4.70;;;;;;;15.84;49.17;98635.19;5445113;26;20309;-70
2024/04/13 02:51:49;;;;;;;9.87;4.50;;;;;;;15.84;49.52;98642.31;5440487;26;20247;-69
2024/04/13 02:54:14;;;;;;;6.13;4.70;;;;;;;15.80;49.79;98637.31;5447249;26;20630;-72
2024/04/13 02:56:40;;;;;;;8.80;4.77;;;;;;;15.82;50.00;98638.00;5442214;26;20350;-70
2024/04/13 02:59:06;;;;;;;7.10;5.03;;;;;;;15.80;49.84;98637.31;5445821;26;20231;-72
2024/04/13 03:01:32;;;;;;;9.63;5.03;;;;;;;15.77;50.07;98644.72;5434755;26;20239;-69
2024/04/13 03:03:58;;;;;;;4.80;4.30;;;;;;;15.78;49.53;98647.22;5431428;26;20460;-70
2024/04/13 03:06:23;;;;;;;6.80;4.53;;;;;;;15.80;49.21;98636.50;5445967;26;20235;-70
2024/04/13 03:08:50;;;;;;;9.43;5.00;;;;;;;15.75;49.72;98639.56;5437808;26;20507;-72
2024/04/13 03:11:17;;;;;;;7.90;4.77;;;;;;;15.74;49.88;98640.56;5447658;26;20236;-71
2024/04/13 03:13:43;;;;;;;9.83;4.90;;;;;;;15.69;49.86;98650.75;5420336;26;20474;-70
2024/04/13 03:16:09;;;;;;;7.53;4.70;;;;;;;15.70;50.00;98641.00;5443703;26;20457;-70
2024/04/13 03:18:39;;;;;;;10.37;4.80;;;;;;;15.75;49.95;98642.22;5446599;26;20722;-71
2024/04/13 03:21:05;;;;;;;9.50;4.50;;;;;;;15.74;49.94;98642.38;5426911;26;20461;-71
2024/04/13 03:23:32;;;;;;;8.70;4.77;;;;;;;15.65;50.40;98647.59;5445928;26;20546;-69
2024/04/13 03:25:58;;;;;;;6.57;4.47;;;;;;;15.70;50.34;98652.41;5439245;26;20549;-71
2024/04/13 03:28:33;;;;;;;9.07;5.23;;;;;;;15.61;50.12;98648.03;5439089;26;20968;-70
2024/04/13 03:30:58;;;;;;;9.60;4.70;;;;;;;15.60;50.21;98644.56;5447330;26;20553;-69
2024/04/13 03:33:24;;;;;;;11.60;4.97;;;;;;;15.54;50.16;98636.38;5446310;26;20816;-70
2024/04/13 03:35:49;;;;;;;13.53;5.20;;;;;;;15.51;50.56;98645.44;5418378;26;20283;-73
2024/04/13 03:38:16;;;;;;;11.90;4.83;;;;;;;15.50;50.30;98643.78;5441745;26;20788;-70
2024/04/13 03:40:41;;;;;;;9.33;5.33;;;;;;;15.51;50.47;98638.34;5432237;26;20609;-70
2024/04/13 03:43:07;;;;;;;7.03;4.50;;;;;;;15.41;50.80;98642.84;5431479;26;20520;-71
2024/04/13 03:45:33;;;;;;;6.30;4.77;;;;;;;15.45;50.89;98644.25;5428499;26;20273;-71
2024/04/13 03:48:00;;;;;;;9.50;5.00;;;;;;;15.40;50.73;98654.41;5420781;26;20274;-70
2024/04/13 03:50:25;;;;;;;6.00;4.13;;;;;;;15.36;50.78;98653.06;5440929;26;20513;-68
2024/04/13 03:52:51;;;;;;;6.80;4.40;;;;;;;15.36;50.78;98647.78;5445919;26;20453;-70
2024/04/13 03:55:16;;;;;;;7.90;4.63;;;;;;;15.28;51.27;98647.66;5439900;26;20258;-68
2024/04/13 03:57:42;;;;;;;6.17;4.43;;;;;;;15.30;50.91;98643.06;5436105;26;23498;-68
2024/04/13 04:00:08;;;;;;;8.30;4.97;;;;;;;15.30;50.75;98645.72;5446164;26;20231;-70
2024/04/13 04:02:34;;;;;;;5.23;4.50;;;;;;;15.28;51.16;98642.38;5430708;26;20235;-69
2024/04/13 04:05:03;;;;;;;8.20;4.83;;;;;;;15.21;50.97;98642.13;5450386;26;20449;-71
2024/04/13 04:07:29;;;;;;;11.20;4.80;;;;;;;15.24;51.14;98651.59;5396918;26;20517;-69
2024/04/13 04:09:54;;;;;;;7.90;4.67;;;;;;;15.19;51.17;98644.94;5430878;26;20456;-68
2024/04/13 04:12:20;;;;;;;4.50;4.10;;;;;;;15.13;51.17;98642.88;5445772;26;20330;-69
2024/04/13 04:14:45;;;;;;;5.90;4.80;;;;;;;15.17;50.87;98640.78;5430074;26;20270;-70
2024/04/13 04:17:11;;;;;;;14.53;4.90;;;;;;;15.07;51.31;98640.81;5430515;26;20615;-71
2024/04/13 04:19:36;;;;;;;10.20;4.73;;;;;;;15.00;51.36;98643.22;5444744;26;20231;-69
2024/04/13 04:22:02;;;;;;;10.00;4.90;;;;;;;15.09;51.24;98641.50;5446001;26;20286;-68
2024/04/13 04:24:27;;;;;;;9.40;5.60;;;;;;;15.09;51.03;98636.22;5443722;26;20227;-71
2024/04/13 04:26:53;;;;;;;10.53;5.30;;;;;;;15.11;51.23;98636.06;5444774;26;20243;-70
2024/04/13 04:29:18;;;;;;;8.40;5.03;;;;;;;15.13;51.07;98632.31;5445698;26;20274;-69
2024/04/13 04:31:43;;;;;;;6.50;3.90;;;;;;;15.09;51.41;98630.94;5444122;26;20259;-70
2024/04/13 04:34:09;;;;;;;10.87;4.60;;;;;;;15.12;51.37;98628.00;5448504;26;20247;-71
2024/04/13 04:36:35;;;;;;;7.30;4.43;;;;;;;15.16;50.92;98628.56;5430788;26;20239;-73
2024/04/13 04:39:00;;;;;;;8.53;4.60;;;;;;;15.17;50.88;98633.69;5445254;26;20235;-71
2024/04/13 04:41:26;;;;;;;7.50;4.87;;;;;;;15.15;50.64;98632.16;5437229;26;20247;-69
2024/04/13 04:43:53;;;;;;;8.40;4.17;;;;;;;15.17;50.95;98636.31;5444804;26;20235;-72
2024/04/13 04:46:20;;;;;;;6.60;4.27;;;;;;;15.17;50.91;98638.16;5431424;26;20469;-71
2024/04/13 04:48:49;;;;;;;7.43;4.93;;;;;;;15.10;51.45;98640.53;5440217;26;22476;-72
2024/04/13 04:51:14;;;;;;;7.23;4.73;;;;;;;15.08;50.90;98636.34;5445707;26;20456;-69
2024/04/13 04:53:40;;;;;;;6.47;4.53;;;;;;;15.08;51.43;98634.56;5444152;26;20543;-74
2024/04/13 04:56:05;;;;;;;9.70;4.87;;;;;;;15.01;51.79;98630.84;5444896;26;20650;-72
2024/04/13 04:58:31;;;;;;;12.23;4.77;;;;;;;15.02;51.50;98628.06;5430414;26;20320;-70
2024/04/13 05:00:56;;;;;;;8.07;4.33;;;;;;;15.05;51.26;98640.97;5432073;26;20247;-69
2024/04/13 05:03:22;;;;;;;5.60;4.37;;;;;;;15.02;51.57;98632.50;5441955;26;20255;-72
2024/04/13 05:05:48;;;;;;;8.33;3.93;;;;;;;15.05;51.26;98640.13;5439567;26;20260;-71
2024/04/13 05:08:14;;;;;;;6.40;4.10;;;;;;;15.11;51.52;98644.84;5424249;26;20233;-72
2024/04/13 05:10:40;;;;;;;6.13;4.80;;;;;;;15.01;50.97;98641.38;5438660;26;20562;-70
2024/04/13 05:13:06;;;;;;;7.37;4.90;;;;;;;15.04;51.61;98647.22;5431192;26;20232;-72
2024/04/13 05:15:32;;;;;;;9.50;4.83;;;;;;;15.04;51.76;98652.50;5443652;26;20918;-68
2024/04/13 05:17:57;;;;;;;7.70;4.60;;;;;;;15.04;52.07;98643.75;5447251;26;20476;-72
2024/04/13 05:20:23;;;;;;;8.10;5.50;;;;;;;15.06;51.86;98649.72;5435271;26;20300;-70
2024/04/13 05:22:49;;;;;;;15.87;5.60;;;;;;;15.08;51.23;98645.13;5444132;26;20239;-70
2024/04/13 05:25:14;;;;;;;10.37;5.37;;;;;;;15.11;51.39;98647.47;5429317;26;20303;-69
2024/04/13 05:27:40;;;;;;;7.43;4.63;;;;;;;15.16;50.43;98647.03;5441049;26;20239;-69
2024/04/13 05:30:06;;;;;;;8.87;4.80;;;;;;;15.17;50.05;98643.44;5448908;26;20578;-71
2024/04/13 05:32:33;;;;;;;9.60;5.27;;;;;;;15.20;50.82;98651.03;5445009;26;20278;-72
2024/04/13 05:34:59;;;;;;;9.53;4.60;;;;;;;15.14;50.47;98644.53;5441551;26;20999;-71
2024/04/13 05:37:25;;;;;;;13.77;5.37;;;;;;;15.09;50.61;98646.78;5431362;26;20838;-70
2024/04/13 05:39:51;;;;;;;11.10;5.40;;;;;;;14.98;50.60;98652.25;5434878;26;20461;-70
2024/04/13 05:42:16;;;;;;;7.30;5.20;;;;;;;15.00;50.91;98651.13;5445497;26;20576;-70
2024/04/13 05:44:42;;;;;;;9.73;5.27;;;;;;;15.13;50.50;98642.88;5444293;26;21109;-71
2024/04/13 05:47:07;;;;;;;8.30;5.27;;;;;;;15.11;50.88;98647.47;5446161;26;20303;-72
2024/04/13 05:49:33;;;;;;;8.57;5.23;;;;;;;15.12;51.11;98649.13;5441247;26;20278;-70
2024/04/13 05:51:59;;;;;;;9.63;5.50;;;;;;;15.25;51.16;98637.41;5446780;26;20266;-72
2024/04/13 05:54:24;;;;;;;6.37;4.80;;;;;;;15.27;50.88;98649.47;5413851;26;20286;-69
2024/04/13 05:56:52;;;;;;;8.13;5.20;;;;;;;15.38;51.04;98640.50;5435735;26;20247;-71
2024/04/13 05:59:17;;;;;;;14.40;5.27;;;;;;;15.56;50.93;98645.00;5449979;26;20575;-71
2024/04/13 06:01:43;;;;;;;8.27;5.60;;;;;;;15.75;50.43;98647.50;5451229;26;20706;-70
2024/04/13 06:04:09;;;;;;;8.90;5.00;;;;;;;15.94;50.13;98643.09;5449670;26;20331;-71
2024/04/13 06:06:34;;;;;;;5.93;5.03;;;;;;;16.08;50.29;98647.84;5444051;26;20247;-71
2024/04/13 06:09:00;;;;;;;7.87;4.83;;;;;;;16.24;48.33;98654.25;5442646;26;20291;-72
2024/04/13 06:11:25;;;;;;;7.70;5.00;;;;;;;16.39;48.13;98657.19;5428289;26;20553;-70
2024/04/13 06:13:51;;;;;;;7.63;5.80;;;;;;;16.58;48.24;98654.31;5416907;26;20281;-72
2024/04/13 06:16:16;;;;;;;9.70;4.87;;;;;;;16.69;47.16;98653.25;5440981;26;20247;-69
2024/04/13 06:18:42;;;;;;;11.33;5.17;;;;;;;16.76;47.51;98652.63;5436999;26;20231;-71
2024/04/13 06:21:07;;;;;;;8.27;5.10;;;;;;;16.80;47.35;98649.50;5433154;26;20745;-74
2024/04/13 06:23:33;;;;;;;9.83;5.17;;;;;;;16.89;47.26;98653.00;5435517;26;20231;-70
2024/04/13 06:25:59;;;;;;;8.97;5.37;;;;;;;17.00;47.40;98652.78;5436956;26;20748;-72
2024/04/13 06:28:26;;;;;;;13.50;5.00;;;;;;;17.15;46.96;98652.16;5437041;26;20247;-70
2024/04/13 06:30:52;;;;;;;9.83;5.23;;;;;;;17.16;46.25;98648.53;5437586;26;20267;-71
2024/04/13 06:33:17;;;;;;;8.00;5.00;;;;;;;17.22;46.48;98650.56;5440037;26;20464;-68
2024/04/13 06:35:47;;;;;;;10.23;4.73;;;;;;;17.27;46.45;98650.88;5427117;26;20243;-71
2024/04/13 06:38:13;;;;;;;7.13;5.03;;;;;;;17.49;46.66;98654.78;5430025;26;20287;-71
2024/04/13 06:40:38;;;;;;;9.37;4.90;;;;;;;17.76;46.46;98649.38;5458427;26;20517;-71
2024/04/13 06:43:04;;;;;;;7.50;4.87;;;;;;;17.95;46.08;98659.69;5436585;26;20270;-70
2024/04/13 06:45:29;;;;;;;12.27;4.70;;;;;;;18.11;45.38;98658.06;5426817;26;20236;-69
2024/04/13 06:47:54;;;;;;;14.10;5.47;;;;;;;18.24;45.29;98660.22;5418755;26;20625;-70
2024/04/13 06:50:20;;;;;;;7.63;4.70;;;;;;;18.44;45.27;98658.03;5440311;26;20239;-70
2024/04/13 06:52:47;;;;;;;9.00;4.50;;;;;;;18.66;45.37;98661.00;5420656;26;20240;-69
2024/04/13 06:55:13;;;;;;;11.33;4.67;;;;;;;18.78;44.34;98658.81;5419452;26;20251;-72
2024/04/13 06:57:38;;;;;;;7.13;4.33;;;;;;;19.01;45.06;98651.00;5442668;26;20571;-71
2024/04/13 07:00:05;;;;;;;7.40;4.77;;;;;;;19.18;44.14;98649.91;5447014;26;20243;-70
2024/04/13 07:02:30;;;;;;;10.50;4.77;;;;;;;19.43;43.88;98654.31;5447683;26;20239;-70
2024/04/13 07:04:57;;;;;;;8.33;4.20;;;;;;;19.57;42.92;98658.03;5446921;26;20465;-69
2024/04/13 07:07:22;;;;;;;12.87;4.17;;;;;;;19.74;43.29;98648.97;5446992;26;20247;-71
2024/04/13 07:09:48;;;;;;;6.77;3.97;;;;;;;19.99;43.28;98654.16;5447146;26;20597;-69
2024/04/13 07:12:13;;;;;;;5.03;3.60;;;;;;;20.22;42.90;98653.31;5443614;26;20235;-71
2024/04/13 07:14:39;;;;;;;19.83;4.60;;;;;;;20.45;42.35;98644.44;5445002;26;20625;-71
2024/04/13 07:17:04;;;;;;;8.87;3.80;;;;;;;20.67;42.28;98648.06;5422749;26;20307;-70
2024/04/13 07:19:30;;;;;;;5.43;3.63;;;;;;;20.81;41.13;98639.28;5447257;26;20251;-70
2024/04/13 07:21:56;;;;;;;5.40;4.13;;;;;;;20.94;40.47;98646.63;5435265;26;20286;-71
2024/04/13 07:24:21;;;;;;;8.53;3.57;;;;;;;21.14;40.50;98638.91;5447454;26;20536;-68
2024/04/13 07:26:47;;;;;;;10.47;4.23;;;;;;;21.33;40.49;98642.00;5431335;26;20267;-70
2024/04/13 07:29:12;;;;;;;7.70;4.10;;;;;;;21.49;40.09;98641.75;5427153;26;20792;-71
2024/04/13 07:31:38;;;;;;;5.63;3.80;;;;;;;21.65;39.73;98647.09;5445699;26;20577;-70
2024/04/13 07:34:03;;;;;;;7.23;3.90;;;;;;;21.86;39.69;98648.97;5438205;26;20235;-71
2024/04/13 07:36:28;;;;;;;5.90;4.13;;;;;;;22.04;39.83;98643.19;5431546;26;20282;-70
2024/04/13 07:38:54;;;;;;;7.07;3.57;;;;;;;22.22;38.65;98645.41;5426768;26;20275;-70
2024/04/13 07:41:19;;;;;;;6.60;3.37;;;;;;;22.40;38.74;98643.06;5445455;26;20244;-69
2024/04/13 07:43:45;;;;;;;9.37;3.73;;;;;;;22.60;38.60;98653.13;5431746;26;20816;-70
2024/04/13 07:46:10;;;;;;;7.83;4.20;;;;;;;22.76;38.19;98646.63;5440393;26;20732;-73
2024/04/13 07:48:36;;;;;;;11.73;3.77;;;;;;;22.90;37.86;98652.06;5437884;26;20638;-73
2024/04/13 07:51:03;;;;;;;6.53;3.50;;;;;;;23.12;37.72;98647.44;5432932;26;20236;-71
2024/04/13 07:53:30;;;;;;;3.43;3.13;;;;;;;23.34;37.64;98650.03;5445214;26;20422;-73
2024/04/13 07:55:57;;;;;;;8.00;3.07;;;;;;;23.54;37.43;98642.09;5448475;26;20520;-73
2024/04/13 07:58:23;;;;;;;12.43;3.70;;;;;;;23.72;36.14;98639.63;5432460;26;20457;-73
2024/04/13 08:00:48;;;;;;;7.10;3.43;;;;;;;23.91;36.32;98637.22;5441527;26;20797;-72
2024/04/13 08:03:13;;;;;;;8.37;3.30;;;;;;;23.92;34.73;98633.50;5448999;26;20278;-72
2024/04/13 08:05:39;;;;;;;5.70;3.10;;;;;;;23.91;35.50;98631.88;5440748;26;20287;-73
2024/04/13 08:08:04;;;;;;;6.97;2.97;;;;;;;24.14;34.99;98633.34;5450865;26;20243;-72
2024/04/13 08:10:30;;;;;;;5.40;3.63;;;;;;;24.38;34.91;98624.69;5448217;26;20615;-73
2024/04/13 08:12:55;;;;;;;9.10;3.60;;;;;;;24.49;34.88;98625.09;5445819;26;20240;-74
2024/04/13 08:15:21;;;;;;;4.00;3.13;;;;;;;24.73;34.35;98620.13;5434339;26;20236;-70
2024/04/13 08:17:46;;;;;;;6.60;3.07;;;;;;;24.92;33.40;98605.00;5445318;26;20247;-71
2024/04/13 08:20:12;;;;;;;5.13;3.00;;;;;;;25.17;34.32;98613.19;5428371;26;20286;-73
2024/04/13 08:22:37;;;;;;;4.93;2.53;;;;;;;25.43;33.59;98606.06;5430514;26;20231;-73
2024/04/13 08:25:03;;;;;;;5.23;3.20;;;;;;;25.58;33.02;98598.53;5445519;26;20262;-72
2024/04/13 08:27:30;;;;;;;9.27;3.57;;;;;;;25.69;32.67;98601.59;5445907;26;20728;-73
2024/04/13 08:29:55;;;;;;;4.40;2.90;;;;;;;25.80;32.27;98595.53;5427269;26;20274;-74
2024/04/13 08:32:21;;;;;;;6.03;2.40;;;;;;;25.72;32.18;98585.88;5446161;26;20473;-72
2024/04/13 08:34:46;;;;;;;6.90;4.50;;;;;;;25.95;32.12;98589.00;5454309;26;20262;-71
2024/04/13 08:37:12;;;;;;;5.50;2.43;;;;;;;26.16;31.76;98582.44;5445612;26;20282;-73
2024/04/13 08:39:40;;;;;;;5.40;3.73;;;;;;;26.30;31.62;98578.59;5446429;26;20239;-72
2024/04/13 08:42:10;;;;;;;22.60;16.40;;;;;;;26.55;31.62;98579.59;5440471;26;20263;-72
2024/04/13 08:44:37;;;;;;;5.83;3.53;;;;;;;26.76;30.92;98579.16;5431313;26;20452;-73
2024/04/13 08:47:03;;;;;;;5.53;2.67;;;;;;;26.95;30.79;98579.19;5442279;26;21011;-72
2024/04/13 08:49:36;;;;;;;11.13;4.93;;;;;;;27.16;31.10;98574.38;5414993;26;20503;-72
2024/04/13 08:52:03;;;;;;;9.80;2.63;;;;;;;27.37;30.95;98581.94;5446148;26;20453;-71
2024/04/13 08:54:30;;;;;;;5.10;3.07;;;;;;;27.42;30.29;98570.47;5445251;26;20505;-72
2024/04/13 08:56:55;;;;;;;12.30;5.83;;;;;;;27.37;30.29;98575.75;5445344;26;20604;-72
2024/04/13 08:59:22;;;;;;;4.23;2.87;;;;;;;27.49;30.16;98565.03;5442792;26;20852;-72
2024/04/13 09:01:48;;;;;;;6.07;2.70;;;;;;;27.75;30.00;98567.31;5432852;26;20235;-71
2024/04/13 09:04:14;;;;;;;8.77;3.37;;;;;;;27.99;30.05;98559.28;5429623;26;21041;-74
2024/04/13 09:06:40;;;;;;;3.87;2.40;;;;;;;28.16;29.44;98561.31;5434234;26;20374;-73
2024/04/13 09:09:08;;;;;;;4.03;2.50;;;;;;;28.29;29.67;98562.97;5428895;26;21067;-72
2024/04/13 09:11:37;;;;;;;8.40;2.70;;;;;;;28.35;28.57;98565.50;5439713;26;20265;-72
2024/04/13 09:14:07;;;;;;;4.87;3.50;;;;;;;28.18;29.25;98570.00;5423189;26;20470;-71
2024/04/13 09:16:33;;;;;;;9.53;2.50;;;;;;;28.27;28.66;98568.56;5436742;26;20457;-72
2024/04/13 09:18:59;;;;;;;4.60;2.60;;;;;;;28.40;28.68;98564.00;5441640;26;20482;-71
2024/04/13 09:21:26;;;;;;;5.40;2.70;;;;;;;28.51;28.49;98555.06;5444724;26;20571;-71
2024/04/13 09:23:54;;;;;;;8.33;2.70;;;;;;;28.57;28.33;98554.16;5435737;26;20259;-73
2024/04/13 09:26:21;;;;;;;12.63;9.33;;;;;;;28.58;28.47;98553.09;5443530;26;20516;-72
2024/04/13 09:28:47;;;;;;;3.83;2.90;;;;;;;28.81;28.21;98552.22;5442604;26;20438;-70
2024/04/13 09:31:17;;;;;;;5.27;3.03;;;;;;;28.96;28.34;98545.50;5443100;26;20525;-71
2024/04/13 09:33:51;;;;;;;7.97;5.33;;;;;;;29.07;27.65;98543.84;5444441;26;20244;-71
2024/04/13 09:36:26;;;;;;;16.67;11.10;;;;;;;29.14;27.83;98547.19;5427832;26;20469;-70
2024/04/13 09:38:55;;;;;;;9.00;2.90;;;;;;;29.35;28.15;98544.91;5441190;26;20464;-72
2024/04/13 09:41:22;;;;;;;5.53;2.60;;;;;;;29.30;26.96;98544.78;5442352;26;20528;-71
2024/04/13 09:43:49;;;;;;;6.20;2.87;;;;;;;28.95;27.76;98539.31;5443884;26;20461;-70
2024/04/13 09:46:15;;;;;;;6.90;2.77;;;;;;;29.05;27.54;98530.56;5442510;26;20805;-71
2024/04/13 09:48:40;;;;;;;11.23;5.27;;;;;;;29.16;27.65;98526.19;5444812;26;20599;-71
2024/04/13 09:51:06;;;;;;;4.37;2.40;;;;;;;29.25;27.42;98515.81;5430777;26;20740;-72
2024/04/13 09:53:31;;;;;;;9.60;2.90;;;;;;;29.09;27.10;98512.84;5431952;26;20642;-70
2024/04/13 09:55:57;;;;;;;6.60;2.27;;;;;;;29.26;27.33;98515.56;5436910;26;20235;-72
2024/04/13 09:58:23;;;;;;;4.90;2.77;;;;;;;29.49;27.08;98511.13;5431633;26;20240;-69
2024/04/13 10:00:50;;;;;;;6.87;2.20;;;;;;;29.70;26.66;98504.19;5428080;26;20325;-71
2024/04/13 10:03:16;;;;;;;11.40;2.53;;;;;;;29.76;26.30;98504.28;5442786;26;20453;-71
2024/04/13 10:05:45;;;;;;;5.60;2.87;;;;;;;29.89;26.77;98502.03;5433882;26;20766;-73
2024/04/13 10:08:10;;;;;;;5.07;2.40;;;;;;;29.88;25.92;98500.41;5439045;26;21014;-70
2024/04/13 10:10:48;;;;;;;4.60;1.87;;;;;;;29.97;26.29;98497.34;5433597;26;20462;-70
2024/04/13 10:13:28;;;;;;;5.60;2.27;;;;;;;30.15;25.94;98504.34;5435659;26;20239;-74
2024/04/13 10:15:56;;;;;;;4.80;2.00;;;;;;;30.21;25.35;98491.72;5438410;26;20468;-71
2024/04/13 10:18:21;;;;;;;3.93;2.23;;;;;;;30.23;25.55;98493.09;5411228;26;20478;-71
2024/04/13 10:20:47;;;;;;;2.17;1.90;;;;;;;30.14;25.61;98491.88;5438313;26;20543;-70
2024/04/13 10:23:13;;;;;;;3.33;1.93;;;;;;;29.91;25.54;98482.91;5434532;26;20801;-72
2024/04/13 10:25:39;;;;;;;9.07;6.07;;;;;;;30.26;25.91;98480.94;5425899;26;20364;-71
2024/04/13 10:28:10;;;;;;;13.57;6.90;;;;;;;30.31;25.99;98478.31;5423671;26;20470;-70
2024/04/13 10:30:45;;;;;;;6.60;2.80;;;;;;;30.46;26.03;98481.22;5431793;26;20248;-70
2024/04/13 10:33:21;;;;;;;4.70;2.10;;;;;;;30.36;25.43;98473.00;5429371;26;20445;-69
2024/04/13 10:35:54;;;;;;;5.37;2.37;;;;;;;30.41;25.47;98470.34;5426538;26;20506;-70
2024/04/13 10:38:20;;;;;;;4.13;2.23;;;;;;;30.47;25.32;98471.22;5442132;26;20480;-72
2024/04/13 10:40:45;;;;;;;4.83;2.23;;;;;;;30.46;25.59;98464.16;5429282;26;21089;-71
2024/04/13 10:43:21;;;;;;;5.40;2.20;;;;;;;30.41;25.65;98462.22;5429911;26;20290;-70
2024/04/13 10:45:54;;;;;;;9.30;6.90;;;;;;;30.59;25.95;98457.59;5426576;26;20335;-71
2024/04/13 10:48:21;;;;;;;2.33;2.00;;;;;;;30.68;25.90;98456.06;5440017;26;20503;-72
2024/04/13 10:50:48;;;;;;;4.80;3.07;;;;;;;30.86;26.38;98452.22;5442212;26;20460;-70
2024/04/13 10:53:13;;;;;;;5.00;2.03;;;;;;;30.75;25.07;98448.56;5439985;26;20816;-71
2024/04/13 10:55:39;;;;;;;4.20;2.00;;;;;;;30.52;25.51;98454.22;5428497;26;20558;-72
2024/04/13 10:58:06;;;;;;;4.50;2.37;;;;;;;30.76;25.25;98447.50;5435289;26;20248;-73
2024/04/13 11:00:32;;;;;;;4.63;3.27;;;;;;;31.05;25.01;98446.44;5419464;26;21077;-69
2024/04/13 11:02:57;;;;;;;5.50;1.93;;;;;;;31.18;24.67;98446.06;5443209;26;20456;-71
2024/04/13 11:05:22;;;;;;;4.93;2.13;;;;;;;31.15;24.64;98441.16;5438926;26;20729;-70
2024/04/13 11:07:51;;;;;;;4.23;1.90;;;;;;;30.62;24.44;98438.16;5446687;26;20789;-70
2024/04/13 11:10:18;;;;;;;2.67;1.70;;;;;;;30.91;24.97;98440.63;5439339;26;20262;-70
2024/04/13 11:12:44;;;;;;;4.23;2.23;;;;;;;31.20;25.14;98441.19;5436500;26;20469;-74
2024/04/13 11:15:09;;;;;;;2.10;1.80;;;;;;;31.30;23.77;98435.03;5438341;26;20575;-71
2024/04/13 11:17:35;;;;;;;5.60;2.23;;;;;;;31.29;24.02;98440.72;5422196;26;20760;-71
2024/04/13 11:20:00;;;;;;;5.33;2.83;;;;;;;31.41;24.48;98434.03;5445502;26;20243;-71
2024/04/13 11:22:27;;;;;;;8.37;1.90;;;;;;;31.53;23.82;98430.34;5431514;26;20240;-72
2024/04/13 11:24:53;;;;;;;5.43;2.43;;;;;;;31.61;23.50;98421.75;5432377;26;20247;-69
2024/04/13 11:27:19;;;;;;;4.07;2.10;;;;;;;31.71;23.35;98421.84;5424035;26;20600;-72